sensor_id;sensor_type;location;lat;lon;timestamp;temperature;humidity
37446;DHT22;23307;51.136;14.942;2022-11-02T00:00:32;12.50;99.90
37446;DHT22;23307;51.136;14.942;2022-11-02T00:02:58;12.50;99.90
37446;DHT22;23307;51.136;14.942;2022-11-02T00:05:23;12.40;99.90
37446;DHT22;23307;51.136;14.942;2022-11-02T00:07:50;12.50;99.90
37446;DHT22;23307;51.136;14.942;2022-11-02T00:10:17;12.40;99.90
37446;DHT22;23307;51.136;14.942;2022-11-02T00:12:43;12.40;99.90
37446;DHT22;23307;51.136;14.942;2022-11-02T00:15:09;12.40;99.90
37446;DHT22;23307;51.136;14.942;2022-11-02T00:17:35;12.40;99.90
37446;DHT22;23307;51.136;14.942;2022-11-02T00:20:04;12.50;99.90
37446;DHT22;23307;51.136;14.942;2022-11-02T00:22:31;12.50;99.90
37446;DHT22;23307;51.136;14.942;2022-11-02T00:24:58;12.50;99.90
37446;DHT22;23307;51.136;14.942;2022-11-02T00:27:23;12.50;99.90
37446;DHT22;23307;51.136;14.942;2022-11-02T00:29:49;12.60;99.90
37446;DHT22;23307;51.136;14.942;2022-11-02T00:32:15;12.60;99.90
37446;DHT22;23307;51.136;14.942;2022-11-02T00:34:40;12.60;99.90
37446;DHT22;23307;51.136;14.942;2022-11-02T00:37:06;12.60;99.90
37446;DHT22;23307;51.136;14.942;2022-11-02T00:39:31;12.60;99.90
37446;DHT22;23307;51.136;14.942;2022-11-02T00:41:57;12.60;99.90
37446;DHT22;23307;51.136;14.942;2022-11-02T00:44:22;12.60;99.90
37446;DHT22;23307;51.136;14.942;2022-11-02T00:46:48;12.60;99.90
37446;DHT22;23307;51.136;14.942;2022-11-02T00:49:13;12.60;99.90
37446;DHT22;23307;51.136;14.942;2022-11-02T00:51:39;12.60;99.90
37446;DHT22;23307;51.136;14.942;2022-11-02T00:54:05;12.60;99.90
37446;DHT22;23307;51.136;14.942;2022-11-02T00:56:30;12.60;99.90
37446;DHT22;23307;51.136;14.942;2022-11-02T00:58:56;12.60;99.90
37446;DHT22;23307;51.136;14.942;2022-11-02T01:01:22;12.60;99.90
37446;DHT22;23307;51.136;14.942;2022-11-02T01:03:47;12.60;99.90
37446;DHT22;23307;51.136;14.942;2022-11-02T01:06:14;12.60;99.90
37446;DHT22;23307;51.136;14.942;2022-11-02T01:08:40;12.60;99.90
37446;DHT22;23307;51.136;14.942;2022-11-02T01:11:23;12.60;99.90
37446;DHT22;23307;51.136;14.942;2022-11-02T01:13:50;12.60;99.90
37446;DHT22;23307;51.136;14.942;2022-11-02T01:16:17;12.60;99.90
37446;DHT22;23307;51.136;14.942;2022-11-02T01:18:42;12.60;99.90
37446;DHT22;23307;51.136;14.942;2022-11-02T01:21:08;12.60;99.90
37446;DHT22;23307;51.136;14.942;2022-11-02T01:23:35;12.60;99.90
37446;DHT22;23307;51.136;14.942;2022-11-02T01:26:04;12.60;99.90
37446;DHT22;23307;51.136;14.942;2022-11-02T01:28:30;12.50;99.90
37446;DHT22;23307;51.136;14.942;2022-11-02T01:30:57;12.40;99.90
37446;DHT22;23307;51.136;14.942;2022-11-02T01:33:23;12.40;99.90
37446;DHT22;23307;51.136;14.942;2022-11-02T01:35:49;12.40;99.90
37446;DHT22;23307;51.136;14.942;2022-11-02T01:38:14;12.40;99.90
37446;DHT22;23307;51.136;14.942;2022-11-02T01:40:40;12.30;99.90
37446;DHT22;23307;51.136;14.942;2022-11-02T01:43:32;12.30;99.90
37446;DHT22;23307;51.136;14.942;2022-11-02T01:48:38;12.20;99.90
37446;DHT22;23307;51.136;14.942;2022-11-02T01:51:09;12.20;99.90
37446;DHT22;23307;51.136;14.942;2022-11-02T01:53:40;12.20;99.90
37446;DHT22;23307;51.136;14.942;2022-11-02T01:56:06;12.10;99.90
37446;DHT22;23307;51.136;14.942;2022-11-02T01:58:34;12.10;99.90
37446;DHT22;23307;51.136;14.942;2022-11-02T02:01:00;12.10;99.90
37446;DHT22;23307;51.136;14.942;2022-11-02T02:03:26;12.10;99.90
37446;DHT22;23307;51.136;14.942;2022-11-02T02:06:05;12.00;99.90
37446;DHT22;23307;51.136;14.942;2022-11-02T02:08:31;12.10;99.90
37446;DHT22;23307;51.136;14.942;2022-11-02T02:10:58;12.00;99.90
37446;DHT22;23307;51.136;14.942;2022-11-02T02:13:26;12.00;99.90
37446;DHT22;23307;51.136;14.942;2022-11-02T02:16:08;12.00;99.90
37446;DHT22;23307;51.136;14.942;2022-11-02T02:18:42;12.00;99.90
37446;DHT22;23307;51.136;14.942;2022-11-02T02:24:18;12.00;99.90
37446;DHT22;23307;51.136;14.942;2022-11-02T02:27:03;12.10;99.90
37446;DHT22;23307;51.136;14.942;2022-11-02T02:32:27;12.00;99.90
37446;DHT22;23307;51.136;14.942;2022-11-02T02:35:01;12.00;99.90
37446;DHT22;23307;51.136;14.942;2022-11-02T02:37:40;12.00;99.90
37446;DHT22;23307;51.136;14.942;2022-11-02T02:40:13;12.00;99.90
37446;DHT22;23307;51.136;14.942;2022-11-02T02:42:45;12.00;99.90
37446;DHT22;23307;51.136;14.942;2022-11-02T02:45:26;12.00;99.90
37446;DHT22;23307;51.136;14.942;2022-11-02T02:48:02;12.00;99.90
37446;DHT22;23307;51.136;14.942;2022-11-02T02:50:39;12.00;99.90
37446;DHT22;23307;51.136;14.942;2022-11-02T02:53:06;12.10;99.90
37446;DHT22;23307;51.136;14.942;2022-11-02T02:55:36;12.10;99.90
37446;DHT22;23307;51.136;14.942;2022-11-02T02:58:06;12.10;99.90
37446;DHT22;23307;51.136;14.942;2022-11-02T03:00:35;12.10;99.90
37446;DHT22;23307;51.136;14.942;2022-11-02T03:03:02;12.10;99.90
37446;DHT22;23307;51.136;14.942;2022-11-02T03:05:35;12.10;99.90
37446;DHT22;23307;51.136;14.942;2022-11-02T03:08:05;12.10;99.90
37446;DHT22;23307;51.136;14.942;2022-11-02T03:15:58;12.10;99.90
37446;DHT22;23307;51.136;14.942;2022-11-02T03:18:48;12.10;99.90
37446;DHT22;23307;51.136;14.942;2022-11-02T03:21:39;12.10;99.90
37446;DHT22;23307;51.136;14.942;2022-11-02T03:27:15;12.00;99.90
37446;DHT22;23307;51.136;14.942;2022-11-02T03:29:50;12.00;99.90
37446;DHT22;23307;51.136;14.942;2022-11-02T03:32:24;11.90;99.90
37446;DHT22;23307;51.136;14.942;2022-11-02T03:34:56;11.90;99.90
37446;DHT22;23307;51.136;14.942;2022-11-02T03:37:31;11.90;99.90
37446;DHT22;23307;51.136;14.942;2022-11-02T03:40:04;11.90;99.90
37446;DHT22;23307;51.136;14.942;2022-11-02T03:42:33;11.80;99.90
37446;DHT22;23307;51.136;14.942;2022-11-02T03:45:08;11.80;99.90
37446;DHT22;23307;51.136;14.942;2022-11-02T03:47:36;11.70;99.90
37446;DHT22;23307;51.136;14.942;2022-11-02T03:50:05;11.70;99.90
37446;DHT22;23307;51.136;14.942;2022-11-02T03:52:35;11.60;99.90
37446;DHT22;23307;51.136;14.942;2022-11-02T03:55:06;11.60;99.90
37446;DHT22;23307;51.136;14.942;2022-11-02T03:57:37;11.60;99.90
37446;DHT22;23307;51.136;14.942;2022-11-02T04:00:18;11.50;99.90
37446;DHT22;23307;51.136;14.942;2022-11-02T04:02:47;11.50;99.90
37446;DHT22;23307;51.136;14.942;2022-11-02T04:05:13;11.50;99.90
37446;DHT22;23307;51.136;14.942;2022-11-02T04:07:42;11.50;99.90
37446;DHT22;23307;51.136;14.942;2022-11-02T04:10:27;11.40;99.90
37446;DHT22;23307;51.136;14.942;2022-11-02T04:12:53;11.50;99.90
37446;DHT22;23307;51.136;14.942;2022-11-02T04:15:37;11.40;99.90
37446;DHT22;23307;51.136;14.942;2022-11-02T04:18:03;11.40;99.90
37446;DHT22;23307;51.136;14.942;2022-11-02T04:20:51;11.40;99.90
37446;DHT22;23307;51.136;14.942;2022-11-02T04:23:17;11.30;99.90
37446;DHT22;23307;51.136;14.942;2022-11-02T04:26:01;11.30;99.90
37446;DHT22;23307;51.136;14.942;2022-11-02T04:28:27;11.30;99.90
37446;DHT22;23307;51.136;14.942;2022-11-02T04:30:52;11.30;99.90
37446;DHT22;23307;51.136;14.942;2022-11-02T04:33:18;11.30;99.90
37446;DHT22;23307;51.136;14.942;2022-11-02T04:36:04;11.30;99.90
37446;DHT22;23307;51.136;14.942;2022-11-02T04:38:30;11.30;99.90
37446;DHT22;23307;51.136;14.942;2022-11-02T04:41:14;11.20;99.90
37446;DHT22;23307;51.136;14.942;2022-11-02T04:43:58;11.20;99.90
37446;DHT22;23307;51.136;14.942;2022-11-02T04:46:26;11.10;99.90
37446;DHT22;23307;51.136;14.942;2022-11-02T04:48:51;11.20;99.90
37446;DHT22;23307;51.136;14.942;2022-11-02T04:51:17;11.10;99.90
37446;DHT22;23307;51.136;14.942;2022-11-02T04:53:45;11.00;99.90
37446;DHT22;23307;51.136;14.942;2022-11-02T04:56:10;11.00;99.90
37446;DHT22;23307;51.136;14.942;2022-11-02T04:58:36;11.00;99.90
37446;DHT22;23307;51.136;14.942;2022-11-02T05:01:13;10.90;99.90
37446;DHT22;23307;51.136;14.942;2022-11-02T05:03:39;10.90;99.90
37446;DHT22;23307;51.136;14.942;2022-11-02T05:06:05;10.80;99.90
37446;DHT22;23307;51.136;14.942;2022-11-02T05:08:31;10.80;99.90
37446;DHT22;23307;51.136;14.942;2022-11-02T05:10:57;10.80;99.90
37446;DHT22;23307;51.136;14.942;2022-11-02T05:13:24;10.80;99.90
37446;DHT22;23307;51.136;14.942;2022-11-02T05:15:50;10.80;99.90
37446;DHT22;23307;51.136;14.942;2022-11-02T05:18:19;10.80;99.90
37446;DHT22;23307;51.136;14.942;2022-11-02T05:20:49;10.70;99.90
37446;DHT22;23307;51.136;14.942;2022-11-02T05:23:15;10.70;99.90
37446;DHT22;23307;51.136;14.942;2022-11-02T05:25:40;10.70;99.90
37446;DHT22;23307;51.136;14.942;2022-11-02T05:28:06;10.60;99.90
37446;DHT22;23307;51.136;14.942;2022-11-02T05:30:32;10.70;99.90
37446;DHT22;23307;51.136;14.942;2022-11-02T05:32:57;10.60;99.90
37446;DHT22;23307;51.136;14.942;2022-11-02T05:35:23;10.70;99.90
37446;DHT22;23307;51.136;14.942;2022-11-02T05:37:48;10.70;99.90
37446;DHT22;23307;51.136;14.942;2022-11-02T05:40:14;10.70;99.90
37446;DHT22;23307;51.136;14.942;2022-11-02T05:42:39;10.80;99.90
37446;DHT22;23307;51.136;14.942;2022-11-02T05:45:05;10.90;99.90
37446;DHT22;23307;51.136;14.942;2022-11-02T05:47:32;11.00;99.90
37446;DHT22;23307;51.136;14.942;2022-11-02T05:49:58;11.00;99.90
37446;DHT22;23307;51.136;14.942;2022-11-02T05:52:23;11.00;99.90
37446;DHT22;23307;51.136;14.942;2022-11-02T05:54:49;11.00;99.90
37446;DHT22;23307;51.136;14.942;2022-11-02T05:57:15;11.00;99.90
37446;DHT22;23307;51.136;14.942;2022-11-02T05:59:41;11.10;99.90
37446;DHT22;23307;51.136;14.942;2022-11-02T06:02:07;11.10;99.90
37446;DHT22;23307;51.136;14.942;2022-11-02T06:04:32;11.10;99.90
37446;DHT22;23307;51.136;14.942;2022-11-02T06:06:58;11.10;99.90
37446;DHT22;23307;51.136;14.942;2022-11-02T06:09:23;11.00;99.90
37446;DHT22;23307;51.136;14.942;2022-11-02T06:11:49;11.10;99.90
37446;DHT22;23307;51.136;14.942;2022-11-02T06:14:14;11.10;99.90
37446;DHT22;23307;51.136;14.942;2022-11-02T06:16:40;11.10;99.90
37446;DHT22;23307;51.136;14.942;2022-11-02T06:19:05;11.10;99.90
37446;DHT22;23307;51.136;14.942;2022-11-02T06:21:31;11.10;99.90
37446;DHT22;23307;51.136;14.942;2022-11-02T06:23:56;11.20;99.90
37446;DHT22;23307;51.136;14.942;2022-11-02T06:26:23;11.20;99.90
37446;DHT22;23307;51.136;14.942;2022-11-02T06:28:49;11.20;99.90
37446;DHT22;23307;51.136;14.942;2022-11-02T06:31:14;11.20;99.90
37446;DHT22;23307;51.136;14.942;2022-11-02T06:33:42;11.30;99.90
37446;DHT22;23307;51.136;14.942;2022-11-02T06:36:09;11.30;99.90
37446;DHT22;23307;51.136;14.942;2022-11-02T06:38:34;11.30;99.90
37446;DHT22;23307;51.136;14.942;2022-11-02T06:41:02;11.30;99.90
37446;DHT22;23307;51.136;14.942;2022-11-02T06:43:29;11.30;99.90
37446;DHT22;23307;51.136;14.942;2022-11-02T06:45:56;11.30;99.90
37446;DHT22;23307;51.136;14.942;2022-11-02T06:48:23;11.40;99.90
37446;DHT22;23307;51.136;14.942;2022-11-02T06:50:49;11.40;99.90
37446;DHT22;23307;51.136;14.942;2022-11-02T06:53:14;11.40;99.90
37446;DHT22;23307;51.136;14.942;2022-11-02T06:55:40;11.40;99.90
37446;DHT22;23307;51.136;14.942;2022-11-02T06:58:05;11.40;99.90
37446;DHT22;23307;51.136;14.942;2022-11-02T07:00:31;11.50;99.90
37446;DHT22;23307;51.136;14.942;2022-11-02T07:03:06;11.50;99.90
37446;DHT22;23307;51.136;14.942;2022-11-02T07:05:34;11.60;99.90
37446;DHT22;23307;51.136;14.942;2022-11-02T07:08:00;11.60;99.90
37446;DHT22;23307;51.136;14.942;2022-11-02T07:10:26;11.60;99.90
37446;DHT22;23307;51.136;14.942;2022-11-02T07:12:53;11.70;99.90
37446;DHT22;23307;51.136;14.942;2022-11-02T07:15:20;11.70;99.90
37446;DHT22;23307;51.136;14.942;2022-11-02T07:17:45;11.80;99.90
37446;DHT22;23307;51.136;14.942;2022-11-02T07:20:11;11.80;99.90
37446;DHT22;23307;51.136;14.942;2022-11-02T07:22:37;11.90;99.90
37446;DHT22;23307;51.136;14.942;2022-11-02T07:25:02;11.90;99.90
37446;DHT22;23307;51.136;14.942;2022-11-02T07:27:28;12.00;99.90
37446;DHT22;23307;51.136;14.942;2022-11-02T07:29:54;12.00;99.90
37446;DHT22;23307;51.136;14.942;2022-11-02T07:32:19;12.10;99.90
37446;DHT22;23307;51.136;14.942;2022-11-02T07:34:45;12.10;99.90
37446;DHT22;23307;51.136;14.942;2022-11-02T07:37:10;12.20;99.90
37446;DHT22;23307;51.136;14.942;2022-11-02T07:39:36;12.20;99.90
37446;DHT22;23307;51.136;14.942;2022-11-02T07:42:01;12.30;99.90
37446;DHT22;23307;51.136;14.942;2022-11-02T07:44:27;12.30;99.90
37446;DHT22;23307;51.136;14.942;2022-11-02T07:46:53;12.30;99.90
37446;DHT22;23307;51.136;14.942;2022-11-02T07:49:19;12.40;99.90
37446;DHT22;23307;51.136;14.942;2022-11-02T07:51:44;12.40;99.90
37446;DHT22;23307;51.136;14.942;2022-11-02T07:54:10;12.50;99.90
37446;DHT22;23307;51.136;14.942;2022-11-02T07:56:35;12.60;99.90
37446;DHT22;23307;51.136;14.942;2022-11-02T07:59:01;12.60;99.90
37446;DHT22;23307;51.136;14.942;2022-11-02T08:01:26;12.60;99.90
37446;DHT22;23307;51.136;14.942;2022-11-02T08:03:52;12.70;99.90
37446;DHT22;23307;51.136;14.942;2022-11-02T08:06:19;12.70;99.90
37446;DHT22;23307;51.136;14.942;2022-11-02T08:08:44;12.70;99.90
37446;DHT22;23307;51.136;14.942;2022-11-02T08:11:10;12.70;99.90
37446;DHT22;23307;51.136;14.942;2022-11-02T08:13:36;12.70;99.90
37446;DHT22;23307;51.136;14.942;2022-11-02T08:16:02;12.90;99.90
37446;DHT22;23307;51.136;14.942;2022-11-02T08:18:28;12.90;99.90
37446;DHT22;23307;51.136;14.942;2022-11-02T08:20:55;12.90;99.90
37446;DHT22;23307;51.136;14.942;2022-11-02T08:23:22;13.00;99.90
37446;DHT22;23307;51.136;14.942;2022-11-02T08:25:49;13.00;99.90
37446;DHT22;23307;51.136;14.942;2022-11-02T08:28:17;13.10;99.90
37446;DHT22;23307;51.136;14.942;2022-11-02T08:30:43;13.10;99.90
37446;DHT22;23307;51.136;14.942;2022-11-02T08:33:14;13.10;99.90
37446;DHT22;23307;51.136;14.942;2022-11-02T08:35:41;13.10;99.90
37446;DHT22;23307;51.136;14.942;2022-11-02T08:38:07;13.10;99.90
37446;DHT22;23307;51.136;14.942;2022-11-02T08:40:33;13.20;99.90
37446;DHT22;23307;51.136;14.942;2022-11-02T08:43:04;13.20;99.90
37446;DHT22;23307;51.136;14.942;2022-11-02T08:45:31;13.20;99.90
37446;DHT22;23307;51.136;14.942;2022-11-02T08:47:57;13.30;99.90
37446;DHT22;23307;51.136;14.942;2022-11-02T08:50:24;13.30;99.90
37446;DHT22;23307;51.136;14.942;2022-11-02T08:52:50;13.50;99.90
37446;DHT22;23307;51.136;14.942;2022-11-02T08:55:15;13.50;99.90
37446;DHT22;23307;51.136;14.942;2022-11-02T09:00:14;13.60;99.90
37446;DHT22;23307;51.136;14.942;2022-11-02T09:02:40;13.60;99.90
37446;DHT22;23307;51.136;14.942;2022-11-02T09:05:06;13.70;99.90
37446;DHT22;23307;51.136;14.942;2022-11-02T09:07:32;13.80;99.90
37446;DHT22;23307;51.136;14.942;2022-11-02T09:09:57;13.80;99.90
37446;DHT22;23307;51.136;14.942;2022-11-02T09:12:23;13.90;99.90
37446;DHT22;23307;51.136;14.942;2022-11-02T09:14:48;14.00;99.90
37446;DHT22;23307;51.136;14.942;2022-11-02T09:17:14;14.00;99.90
37446;DHT22;23307;51.136;14.942;2022-11-02T09:19:40;14.10;99.90
37446;DHT22;23307;51.136;14.942;2022-11-02T09:22:05;14.20;99.90
37446;DHT22;23307;51.136;14.942;2022-11-02T09:24:31;14.20;99.90
37446;DHT22;23307;51.136;14.942;2022-11-02T09:26:56;14.30;99.90
37446;DHT22;23307;51.136;14.942;2022-11-02T09:29:22;14.40;99.90
37446;DHT22;23307;51.136;14.942;2022-11-02T09:31:47;14.50;99.90
37446;DHT22;23307;51.136;14.942;2022-11-02T09:34:14;14.60;99.90
37446;DHT22;23307;51.136;14.942;2022-11-02T09:36:39;14.60;99.90
37446;DHT22;23307;51.136;14.942;2022-11-02T09:39:05;14.70;99.90
37446;DHT22;23307;51.136;14.942;2022-11-02T09:41:42;14.80;99.90
37446;DHT22;23307;51.136;14.942;2022-11-02T09:44:30;14.90;99.90
37446;DHT22;23307;51.136;14.942;2022-11-02T09:47:02;15.00;99.90
37446;DHT22;23307;51.136;14.942;2022-11-02T09:49:28;15.10;99.90
37446;DHT22;23307;51.136;14.942;2022-11-02T09:51:55;15.20;99.90
37446;DHT22;23307;51.136;14.942;2022-11-02T09:54:39;15.30;99.90
37446;DHT22;23307;51.136;14.942;2022-11-02T09:57:12;15.50;99.90
37446;DHT22;23307;51.136;14.942;2022-11-02T09:59:40;15.60;99.90
37446;DHT22;23307;51.136;14.942;2022-11-02T10:02:28;15.60;99.90
37446;DHT22;23307;51.136;14.942;2022-11-02T10:16:01;16.00;99.90
37446;DHT22;23307;51.136;14.942;2022-11-02T10:18:30;16.00;99.90
37446;DHT22;23307;51.136;14.942;2022-11-02T10:21:13;16.00;99.90
37446;DHT22;23307;51.136;14.942;2022-11-02T10:23:46;16.20;99.90
37446;DHT22;23307;51.136;14.942;2022-11-02T10:26:21;16.30;99.90
37446;DHT22;23307;51.136;14.942;2022-11-02T10:28:49;16.20;99.90
37446;DHT22;23307;51.136;14.942;2022-11-02T10:31:26;16.20;99.90
37446;DHT22;23307;51.136;14.942;2022-11-02T10:33:56;16.20;99.90
37446;DHT22;23307;51.136;14.942;2022-11-02T10:39:26;16.30;99.90
37446;DHT22;23307;51.136;14.942;2022-11-02T10:42:21;16.50;99.90
37446;DHT22;23307;51.136;14.942;2022-11-02T10:45:19;16.60;99.90
37446;DHT22;23307;51.136;14.942;2022-11-02T10:50:47;16.70;99.90
37446;DHT22;23307;51.136;14.942;2022-11-02T10:53:19;16.90;99.90
37446;DHT22;23307;51.136;14.942;2022-11-02T10:56:20;17.00;99.90
37446;DHT22;23307;51.136;14.942;2022-11-02T10:59:14;17.00;99.90
37446;DHT22;23307;51.136;14.942;2022-11-02T11:04:26;16.80;99.90
37446;DHT22;23307;51.136;14.942;2022-11-02T11:06:53;16.80;99.90
37446;DHT22;23307;51.136;14.942;2022-11-02T11:09:38;16.80;99.90
37446;DHT22;23307;51.136;14.942;2022-11-02T11:12:16;16.70;99.90
37446;DHT22;23307;51.136;14.942;2022-11-02T11:14:52;16.90;99.90
37446;DHT22;23307;51.136;14.942;2022-11-02T11:17:48;16.90;99.90
37446;DHT22;23307;51.136;14.942;2022-11-02T11:20:35;16.80;99.90
37446;DHT22;23307;51.136;14.942;2022-11-02T11:23:20;16.70;99.90
37446;DHT22;23307;51.136;14.942;2022-11-02T11:26:02;16.50;99.90
37446;DHT22;23307;51.136;14.942;2022-11-02T11:31:16;16.50;99.90
37446;DHT22;23307;51.136;14.942;2022-11-02T11:33:45;16.40;99.90
37446;DHT22;23307;51.136;14.942;2022-11-02T11:36:23;16.30;99.90
37446;DHT22;23307;51.136;14.942;2022-11-02T11:38:52;16.40;99.90
37446;DHT22;23307;51.136;14.942;2022-11-02T11:41:18;16.40;99.90
37446;DHT22;23307;51.136;14.942;2022-11-02T11:43:45;16.30;99.90
37446;DHT22;23307;51.136;14.942;2022-11-02T11:46:13;16.40;99.90
37446;DHT22;23307;51.136;14.942;2022-11-02T11:48:41;16.40;99.90
37446;DHT22;23307;51.136;14.942;2022-11-02T11:51:34;16.30;99.90
37446;DHT22;23307;51.136;14.942;2022-11-02T11:54:20;16.40;99.90
37446;DHT22;23307;51.136;14.942;2022-11-02T11:56:48;16.70;99.90
37446;DHT22;23307;51.136;14.942;2022-11-02T12:02:27;17.00;99.90
37446;DHT22;23307;51.136;14.942;2022-11-02T12:05:16;17.20;99.90
37446;DHT22;23307;51.136;14.942;2022-11-02T12:16:32;17.10;99.90
37446;DHT22;23307;51.136;14.942;2022-11-02T12:22:49;16.90;99.90
37446;DHT22;23307;51.136;14.942;2022-11-02T12:31:00;16.90;99.90
37446;DHT22;23307;51.136;14.942;2022-11-02T12:36:44;17.00;99.90
37446;DHT22;23307;51.136;14.942;2022-11-02T12:42:28;17.10;99.90
37446;DHT22;23307;51.136;14.942;2022-11-02T12:47:59;17.10;99.90
37446;DHT22;23307;51.136;14.942;2022-11-02T12:55:58;17.00;99.90
37446;DHT22;23307;51.136;14.942;2022-11-02T12:58:28;17.00;99.90
37446;DHT22;23307;51.136;14.942;2022-11-02T13:01:06;16.90;99.90
37446;DHT22;23307;51.136;14.942;2022-11-02T13:06:16;16.80;99.90
37446;DHT22;23307;51.136;14.942;2022-11-02T13:09:08;16.80;99.90
37446;DHT22;23307;51.136;14.942;2022-11-02T13:11:45;16.80;99.90
37446;DHT22;23307;51.136;14.942;2022-11-02T13:14:19;16.90;99.90
37446;DHT22;23307;51.136;14.942;2022-11-02T13:19:54;17.20;99.90
37446;DHT22;23307;51.136;14.942;2022-11-02T13:22:31;17.20;99.90
37446;DHT22;23307;51.136;14.942;2022-11-02T13:25:19;17.00;99.90
37446;DHT22;23307;51.136;14.942;2022-11-02T13:28:40;16.90;99.90
37446;DHT22;23307;51.136;14.942;2022-11-02T13:30:58;16.80;99.90
37446;DHT22;23307;51.136;14.942;2022-11-02T13:33:35;16.80;99.90
37446;DHT22;23307;51.136;14.942;2022-11-02T13:36:05;16.80;99.90
37446;DHT22;23307;51.136;14.942;2022-11-02T13:38:34;16.80;99.90
37446;DHT22;23307;51.136;14.942;2022-11-02T13:44:08;16.70;99.90
37446;DHT22;23307;51.136;14.942;2022-11-02T13:47:07;16.70;99.90
37446;DHT22;23307;51.136;14.942;2022-11-02T13:49:37;16.70;99.90
37446;DHT22;23307;51.136;14.942;2022-11-02T13:52:13;16.60;99.90
37446;DHT22;23307;51.136;14.942;2022-11-02T13:54:51;16.60;99.90
37446;DHT22;23307;51.136;14.942;2022-11-02T13:57:35;17.20;99.90
37446;DHT22;23307;51.136;14.942;2022-11-02T14:00:06;17.80;99.90
37446;DHT22;23307;51.136;14.942;2022-11-02T14:02:36;18.20;99.90
37446;DHT22;23307;51.136;14.942;2022-11-02T14:05:06;18.60;99.90
37446;DHT22;23307;51.136;14.942;2022-11-02T14:07:37;18.30;99.90
37446;DHT22;23307;51.136;14.942;2022-11-02T14:12:54;18.40;99.90
37446;DHT22;23307;51.136;14.942;2022-11-02T14:20:46;19.30;99.90
37446;DHT22;23307;51.136;14.942;2022-11-02T14:30:47;18.90;99.90
37446;DHT22;23307;51.136;14.942;2022-11-02T14:38:56;17.50;99.90
37446;DHT22;23307;51.136;14.942;2022-11-02T14:47:06;16.90;99.90
37446;DHT22;23307;51.136;14.942;2022-11-02T14:49:37;16.70;99.90
37446;DHT22;23307;51.136;14.942;2022-11-02T14:54:49;16.50;99.90
37446;DHT22;23307;51.136;14.942;2022-11-02T14:57:22;16.50;99.90
37446;DHT22;23307;51.136;14.942;2022-11-02T14:59:51;16.30;99.90
37446;DHT22;23307;51.136;14.942;2022-11-02T15:02:27;16.20;99.90
37446;DHT22;23307;51.136;14.942;2022-11-02T15:04:55;16.20;99.90
37446;DHT22;23307;51.136;14.942;2022-11-02T15:07:31;16.10;99.90
37446;DHT22;23307;51.136;14.942;2022-11-02T15:12:47;15.90;99.90
37446;DHT22;23307;51.136;14.942;2022-11-02T15:15:34;15.90;99.90
37446;DHT22;23307;51.136;14.942;2022-11-02T15:24:12;15.80;99.90
37446;DHT22;23307;51.136;14.942;2022-11-02T15:29:40;15.70;99.90
37446;DHT22;23307;51.136;14.942;2022-11-02T15:32:12;15.60;99.90
37446;DHT22;23307;51.136;14.942;2022-11-02T15:34:43;15.60;99.90
37446;DHT22;23307;51.136;14.942;2022-11-02T15:37:17;15.60;99.90
37446;DHT22;23307;51.136;14.942;2022-11-02T15:39:48;15.50;99.90
37446;DHT22;23307;51.136;14.942;2022-11-02T15:45:20;15.50;99.90
37446;DHT22;23307;51.136;14.942;2022-11-02T15:54:03;15.30;99.90
37446;DHT22;23307;51.136;14.942;2022-11-02T15:57:05;15.30;99.90
37446;DHT22;23307;51.136;14.942;2022-11-02T15:59:57;15.30;99.90
37446;DHT22;23307;51.136;14.942;2022-11-02T16:02:28;15.20;99.90
37446;DHT22;23307;51.136;14.942;2022-11-02T16:05:00;15.20;99.90
37446;DHT22;23307;51.136;14.942;2022-11-02T16:07:27;15.10;99.90
37446;DHT22;23307;51.136;14.942;2022-11-02T16:09:54;15.10;99.90
37446;DHT22;23307;51.136;14.942;2022-11-02T16:12:34;15.00;99.90
37446;DHT22;23307;51.136;14.942;2022-11-02T16:15:12;15.00;99.90
37446;DHT22;23307;51.136;14.942;2022-11-02T16:17:38;14.90;99.90
37446;DHT22;23307;51.136;14.942;2022-11-02T16:25:27;14.80;99.90
37446;DHT22;23307;51.136;14.942;2022-11-02T16:27:55;14.80;99.90
37446;DHT22;23307;51.136;14.942;2022-11-02T16:30:21;14.70;99.90
37446;DHT22;23307;51.136;14.942;2022-11-02T16:32:51;14.70;99.90
37446;DHT22;23307;51.136;14.942;2022-11-02T16:35:18;14.70;99.90
37446;DHT22;23307;51.136;14.942;2022-11-02T16:37:48;14.70;99.90
37446;DHT22;23307;51.136;14.942;2022-11-02T16:40:18;14.60;99.90
37446;DHT22;23307;51.136;14.942;2022-11-02T16:42:45;14.60;99.90
37446;DHT22;23307;51.136;14.942;2022-11-02T16:47:56;14.50;99.90
37446;DHT22;23307;51.136;14.942;2022-11-02T16:50:23;14.40;99.90
37446;DHT22;23307;51.136;14.942;2022-11-02T16:53:00;14.40;99.90
37446;DHT22;23307;51.136;14.942;2022-11-02T16:55:42;14.40;99.90
37446;DHT22;23307;51.136;14.942;2022-11-02T16:58:15;14.30;99.90
37446;DHT22;23307;51.136;14.942;2022-11-02T17:00:58;14.30;99.90
37446;DHT22;23307;51.136;14.942;2022-11-02T17:03:32;14.30;99.90
37446;DHT22;23307;51.136;14.942;2022-11-02T17:06:02;14.30;99.90
37446;DHT22;23307;51.136;14.942;2022-11-02T17:08:29;14.30;99.90
37446;DHT22;23307;51.136;14.942;2022-11-02T17:10:58;14.30;99.90
37446;DHT22;23307;51.136;14.942;2022-11-02T17:13:27;14.30;99.90
37446;DHT22;23307;51.136;14.942;2022-11-02T17:16:09;14.30;99.90
37446;DHT22;23307;51.136;14.942;2022-11-02T17:18:35;14.30;99.90
37446;DHT22;23307;51.136;14.942;2022-11-02T17:21:15;14.30;99.90
37446;DHT22;23307;51.136;14.942;2022-11-02T17:23:45;14.30;99.90
37446;DHT22;23307;51.136;14.942;2022-11-02T17:31:31;14.20;99.90
37446;DHT22;23307;51.136;14.942;2022-11-02T17:33:59;14.20;99.90
37446;DHT22;23307;51.136;14.942;2022-11-02T17:36:26;14.20;99.90
37446;DHT22;23307;51.136;14.942;2022-11-02T17:38:53;14.10;99.90
37446;DHT22;23307;51.136;14.942;2022-11-02T17:41:19;14.10;99.90
37446;DHT22;23307;51.136;14.942;2022-11-02T17:46:37;14.10;99.90
37446;DHT22;23307;51.136;14.942;2022-11-02T17:49:03;14.00;99.90
37446;DHT22;23307;51.136;14.942;2022-11-02T17:51:29;14.00;99.90
37446;DHT22;23307;51.136;14.942;2022-11-02T17:53:54;13.90;99.90
37446;DHT22;23307;51.136;14.942;2022-11-02T17:56:20;13.90;99.90
37446;DHT22;23307;51.136;14.942;2022-11-02T17:58:45;13.80;99.90
37446;DHT22;23307;51.136;14.942;2022-11-02T18:01:11;13.70;99.90
37446;DHT22;23307;51.136;14.942;2022-11-02T18:03:37;13.70;99.90
37446;DHT22;23307;51.136;14.942;2022-11-02T18:06:03;13.70;99.90
37446;DHT22;23307;51.136;14.942;2022-11-02T18:08:29;13.70;99.90